Time;durP1;ratioP1;P1;durP2;ratioP2;P2;SDS_P1;SDS_P2;PMS_P1;PMS_P2;Temp;Humidity;BMP_temperature;BMP_pressure;BME280_temperature;BME280_humidity;BME280_pressure;Samples;Min_cycle;Max_cycle;Signal;HPM_P1;HPM_P2
2023/07/19 00:00:42;;;;;;;;;;;;;;;18.19;32.40;100450.38;4902944;28;97995;-69
2023/07/19 00:03:08;;;;;;;;;;;;;;;18.13;32.34;100447.81;4907975;28;98507;-69
2023/07/19 00:05:36;;;;;;;;;;;;;;;18.11;32.56;100451.97;4922891;28;98414;-69
2023/07/19 00:08:04;;;;;;;;;;;;;;;18.08;32.35;100444.44;4919247;28;98547;-69
2023/07/19 00:10:31;;;;;;;;;;;;;;;18.07;32.54;100445.53;4908819;28;98244;-69
2023/07/19 00:12:57;;;;;;;;;;;;;;;18.04;32.52;100446.19;4923166;28;98017;-69
2023/07/19 00:15:24;;;;;;;;;;;;;;;17.99;32.66;100441.66;4921080;28;98541;-69
2023/07/19 00:17:50;;;;;;;;;;;;;;;17.99;32.41;100440.88;4903681;28;100012;-69
2023/07/19 00:20:18;;;;;;;;;;;;;;;17.96;32.46;100436.88;4903854;28;98463;-69
2023/07/19 00:22:45;;;;;;;;;;;;;;;17.96;32.47;100433.31;4905794;28;98039;-69
2023/07/19 00:25:12;;;;;;;;;;;;;;;17.95;32.46;100437.97;4917705;28;98179;-69
2023/07/19 00:27:38;;;;;;;;;;;;;;;17.97;32.64;100445.84;4904682;28;98357;-69
2023/07/19 00:30:05;;;;;;;;;;;;;;;17.96;32.55;100433.31;4904457;28;98508;-69
2023/07/19 00:32:32;;;;;;;;;;;;;;;17.96;32.58;100430.59;4903801;28;98445;-69
2023/07/19 00:34:59;;;;;;;;;;;;;;;17.94;32.50;100422.75;4909434;28;98243;-69
2023/07/19 00:37:26;;;;;;;;;;;;;;;17.93;32.50;100420.34;4904810;28;98284;-69
2023/07/19 00:39:52;;;;;;;;;;;;;;;17.87;32.44;100423.19;4889208;28;98258;-69
2023/07/19 00:42:18;;;;;;;;;;;;;;;17.80;32.43;100413.88;4921564;28;100017;-69
2023/07/19 00:44:44;;;;;;;;;;;;;;;17.75;32.52;100414.03;4905328;28;98190;-69
2023/07/19 00:47:11;;;;;;;;;;;;;;;17.74;32.53;100406.94;4921115;28;100069;-69
2023/07/19 00:49:40;;;;;;;;;;;;;;;17.79;32.77;100415.00;4923866;28;98012;-69
2023/07/19 00:52:06;;;;;;;;;;;;;;;17.82;32.53;100419.81;4910117;28;98280;-69
2023/07/19 00:54:33;;;;;;;;;;;;;;;17.83;32.63;100410.53;4888469;28;98507;-70
2023/07/19 00:56:59;;;;;;;;;;;;;;;17.81;32.70;100408.13;4910680;28;101398;-69
2023/07/19 00:59:26;;;;;;;;;;;;;;;17.79;32.74;100404.91;4909096;28;98328;-69
2023/07/19 01:01:53;;;;;;;;;;;;;;;17.75;32.64;100397.69;4923831;28;98462;-69
2023/07/19 01:04:19;;;;;;;;;;;;;;;17.72;32.75;100403.72;4908020;28;98225;-69
2023/07/19 01:06:45;;;;;;;;;;;;;;;17.66;32.66;100409.31;4903087;28;98023;-69
2023/07/19 01:09:12;;;;;;;;;;;;;;;17.62;32.85;100407.56;4903724;28;98519;-69
2023/07/19 01:11:39;;;;;;;;;;;;;;;17.59;32.87;100408.97;4904788;28;98001;-69
2023/07/19 01:14:05;;;;;;;;;;;;;;;17.54;32.74;100402.88;4904040;28;98300;-69
2023/07/19 01:16:32;;;;;;;;;;;;;;;17.50;32.81;100404.63;4916035;28;98240;-69
2023/07/19 01:18:59;;;;;;;;;;;;;;;17.46;32.77;100400.94;4902124;28;98321;-69
2023/07/19 01:21:26;;;;;;;;;;;;;;;17.40;32.89;100394.81;4905861;28;99190;-69
2023/07/19 01:23:52;;;;;;;;;;;;;;;17.35;32.83;100392.22;4903327;28;98080;-69
2023/07/19 01:26:19;;;;;;;;;;;;;;;17.32;32.75;100398.28;4887602;28;98077;-69
2023/07/19 01:28:45;;;;;;;;;;;;;;;17.27;32.83;100393.00;4887608;28;98239;-69
2023/07/19 01:31:13;;;;;;;;;;;;;;;17.23;32.93;100387.38;4885745;28;98281;-69
2023/07/19 01:33:39;;;;;;;;;;;;;;;17.22;32.95;100393.13;4903068;28;98195;-69
2023/07/19 01:36:05;;;;;;;;;;;;;;;17.17;32.91;100396.78;4904080;28;98204;-69
2023/07/19 01:38:32;;;;;;;;;;;;;;;17.11;32.88;100392.59;4905345;28;98466;-69
2023/07/19 01:40:58;;;;;;;;;;;;;;;17.06;32.74;100388.09;4935565;28;98069;-70
2023/07/19 01:43:24;;;;;;;;;;;;;;;17.02;32.82;100389.84;4919559;28;99480;-69
2023/07/19 01:45:51;;;;;;;;;;;;;;;16.98;32.95;100394.28;4901114;28;98042;-69
2023/07/19 01:48:19;;;;;;;;;;;;;;;16.95;32.97;100388.66;4902208;28;98174;-69
2023/07/19 01:50:47;;;;;;;;;;;;;;;16.89;32.92;100388.78;4903633;28;98186;-69
2023/07/19 01:53:13;;;;;;;;;;;;;;;16.86;33.10;100385.91;4902539;28;98224;-70
2023/07/19 01:55:40;;;;;;;;;;;;;;;16.82;33.03;100383.00;4919933;28;98061;-69
2023/07/19 01:58:07;;;;;;;;;;;;;;;16.79;32.91;100383.59;4918813;28;98640;-69
2023/07/19 02:00:34;;;;;;;;;;;;;;;16.78;32.98;100375.72;4903304;28;98211;-69
2023/07/19 02:03:01;;;;;;;;;;;;;;;16.76;32.91;100381.50;4905410;28;99791;-69
2023/07/19 02:05:27;;;;;;;;;;;;;;;16.75;33.09;100377.19;4906057;28;98726;-69
2023/07/19 02:07:54;;;;;;;;;;;;;;;16.74;33.00;100369.31;4906765;28;97977;-69
2023/07/19 02:10:20;;;;;;;;;;;;;;;16.73;32.98;100370.41;4888477;28;98551;-69
2023/07/19 02:12:47;;;;;;;;;;;;;;;16.72;33.04;100374.25;4920869;28;98121;-69
2023/07/19 02:15:13;;;;;;;;;;;;;;;16.71;32.92;100373.44;4908903;28;98621;-69
2023/07/19 02:17:40;;;;;;;;;;;;;;;16.71;33.06;100380.81;4922233;28;98346;-69
2023/07/19 02:20:07;;;;;;;;;;;;;;;16.71;33.01;100380.81;4891790;28;98076;-69
2023/07/19 02:22:33;;;;;;;;;;;;;;;16.69;33.02;100376.44;4894749;28;98506;-69
2023/07/19 02:25:00;;;;;;;;;;;;;;;16.69;32.94;100370.22;4939985;28;98140;-69
2023/07/19 02:27:26;;;;;;;;;;;;;;;16.66;33.03;100377.09;4907270;28;98597;-69
2023/07/19 02:29:52;;;;;;;;;;;;;;;16.62;33.04;100375.28;4910052;28;99361;-69
2023/07/19 02:32:19;;;;;;;;;;;;;;;16.56;33.00;100368.38;4893030;28;98198;-69
2023/07/19 02:34:45;;;;;;;;;;;;;;;16.50;32.96;100370.41;4918613;28;98585;-69
2023/07/19 02:37:12;;;;;;;;;;;;;;;16.48;33.09;100382.72;4897200;28;98174;-69
2023/07/19 02:39:39;;;;;;;;;;;;;;;16.43;33.16;100376.28;4927731;28;98172;-69
2023/07/19 02:42:05;;;;;;;;;;;;;;;16.37;33.02;100366.63;4926178;28;97846;-69
2023/07/19 02:44:32;;;;;;;;;;;;;;;16.32;33.27;100361.31;4927411;28;98079;-69
2023/07/19 02:46:59;;;;;;;;;;;;;;;16.24;33.25;100361.25;4919413;28;98412;-69
2023/07/19 02:49:26;;;;;;;;;;;;;;;16.15;33.12;100367.44;4907062;28;98199;-69
2023/07/19 02:51:52;;;;;;;;;;;;;;;16.10;33.33;100364.00;4908329;28;98091;-69
2023/07/19 02:54:18;;;;;;;;;;;;;;;16.05;33.24;100366.84;4902499;28;98179;-69
2023/07/19 02:56:45;;;;;;;;;;;;;;;16.02;33.38;100364.72;4906755;28;97998;-69
2023/07/19 02:59:11;;;;;;;;;;;;;;;15.98;33.03;100363.72;4903213;28;100821;-69
2023/07/19 03:01:39;;;;;;;;;;;;;;;15.92;33.26;100368.50;4904604;28;97973;-69
2023/07/19 03:04:06;;;;;;;;;;;;;;;15.88;33.25;100364.78;4921816;28;98230;-69
2023/07/19 03:06:32;;;;;;;;;;;;;;;15.86;33.13;100361.53;4908565;28;98027;-69
2023/07/19 03:08:58;;;;;;;;;;;;;;;15.82;33.35;100361.34;4890089;28;97913;-69
2023/07/19 03:11:27;;;;;;;;;;;;;;;15.79;33.14;100361.94;4910639;28;98316;-69
2023/07/19 03:13:53;;;;;;;;;;;;;;;15.77;33.44;100366.09;4903135;28;98889;-69
2023/07/19 03:16:20;;;;;;;;;;;;;;;15.74;33.27;100374.84;4904111;28;99790;-69
2023/07/19 03:18:47;;;;;;;;;;;;;;;15.72;33.29;100375.16;4904905;28;99018;-69
2023/07/19 03:21:13;;;;;;;;;;;;;;;15.69;33.34;100367.63;4906889;28;98044;-69
2023/07/19 03:23:40;;;;;;;;;;;;;;;15.67;33.52;100369.81;4924558;28;98009;-68
2023/07/19 03:26:09;;;;;;;;;;;;;;;15.63;33.16;100366.88;4922683;28;99793;-69
2023/07/19 03:28:35;;;;;;;;;;;;;;;15.61;33.46;100365.56;4924011;28;98496;-69
2023/07/19 03:31:10;;;;;;;;;;;;;;;15.62;33.27;100372.63;4924681;28;98369;-69
2023/07/19 03:33:36;;;;;;;;;;;;;;;15.64;33.17;100373.09;4924207;28;98549;-69
2023/07/19 03:36:02;;;;;;;;;;;;;;;15.63;33.27;100374.22;4919333;28;98031;-69
2023/07/19 03:38:29;;;;;;;;;;;;;;;15.64;33.03;100373.09;4907135;28;99651;-69
2023/07/19 03:41:03;;;;;;;;;;;;;;;15.61;33.27;100371.00;4907301;28;98308;-69
2023/07/19 03:43:29;;;;;;;;;;;;;;;15.61;33.32;100368.28;4900279;28;98604;-69
2023/07/19 03:45:55;;;;;;;;;;;;;;;15.60;33.20;100362.06;4909252;28;98118;-69
2023/07/19 03:48:22;;;;;;;;;;;;;;;15.62;33.05;100367.97;4888477;28;100188;-69
2023/07/19 03:51:00;;;;;;;;;;;;;;;15.61;33.31;100362.88;4891092;28;98295;-69
2023/07/19 03:53:28;;;;;;;;;;;;;;;15.59;32.91;100365.06;4905553;28;99676;-68
2023/07/19 03:55:58;;;;;;;;;;;;;;;15.56;33.51;100371.09;4888412;28;98096;-69
2023/07/19 03:58:25;;;;;;;;;;;;;;;15.57;33.19;100368.09;4905615;28;98104;-69
2023/07/19 04:00:54;;;;;;;;;;;;;;;15.55;33.08;100370.28;4902809;28;97904;-69
2023/07/19 04:03:21;;;;;;;;;;;;;;;15.51;33.53;100369.28;4890194;28;98327;-69
2023/07/19 04:05:47;;;;;;;;;;;;;;;15.48;33.30;100375.31;4887329;28;97978;-69
2023/07/19 04:08:15;;;;;;;;;;;;;;;15.49;33.32;100373.44;4885761;28;98225;-69
2023/07/19 04:10:41;;;;;;;;;;;;;;;15.49;33.60;100374.22;4922262;28;99874;-69
2023/07/19 04:13:09;;;;;;;;;;;;;;;15.50;33.14;100362.25;4919252;28;98384;-69
2023/07/19 04:15:36;;;;;;;;;;;;;;;15.51;33.45;100360.34;4887062;28;100199;-69
2023/07/19 04:18:02;;;;;;;;;;;;;;;15.53;33.34;100358.13;4921292;28;98023;-69
2023/07/19 04:20:29;;;;;;;;;;;;;;;15.56;33.37;100357.50;4904941;28;98024;-69
2023/07/19 04:22:55;;;;;;;;;;;;;;;15.56;33.35;100358.34;4884013;28;98774;-69
2023/07/19 04:25:24;;;;;;;;;;;;;;;15.56;33.61;100352.91;4923178;28;98625;-69
2023/07/19 04:27:50;;;;;;;;;;;;;;;15.58;33.19;100349.88;4896506;28;100059;-69
2023/07/19 04:30:17;;;;;;;;;;;;;;;15.56;33.29;100347.47;4923133;28;98323;-69
2023/07/19 04:32:43;;;;;;;;;;;;;;;15.57;33.14;100356.44;4907547;28;98330;-69
2023/07/19 04:35:09;;;;;;;;;;;;;;;15.60;33.26;100353.06;4920086;28;98136;-69
2023/07/19 04:37:38;;;;;;;;;;;;;;;15.62;33.46;100351.69;4920427;28;98027;-69
2023/07/19 04:40:06;;;;;;;;;;;;;;;15.66;33.50;100347.28;4921415;28;98160;-70
2023/07/19 04:42:32;;;;;;;;;;;;;;;15.72;33.18;100348.00;4920555;28;98365;-69
2023/07/19 04:44:59;;;;;;;;;;;;;;;15.79;33.15;100345.63;4919861;28;98215;-69
2023/07/19 04:47:26;;;;;;;;;;;;;;;15.87;33.34;100342.19;4921066;28;98218;-70
2023/07/19 04:49:53;;;;;;;;;;;;;;;15.94;33.06;100341.78;4921254;28;98685;-69
2023/07/19 04:52:19;;;;;;;;;;;;;;;16.03;33.21;100350.81;4918448;28;98405;-69
2023/07/19 04:54:48;;;;;;;;;;;;;;;16.12;33.23;100348.19;4906178;28;98301;-69
2023/07/19 04:57:18;;;;;;;;;;;;;;;16.24;33.01;100355.81;4921944;28;99840;-69
2023/07/19 04:59:44;;;;;;;;;;;;;;;16.33;33.28;100341.16;4924965;28;98068;-69
2023/07/19 05:02:10;;;;;;;;;;;;;;;16.46;33.22;100353.09;4891110;28;98569;-69
2023/07/19 05:04:37;;;;;;;;;;;;;;;16.56;33.14;100350.13;4887205;28;98936;-69
2023/07/19 05:07:03;;;;;;;;;;;;;;;16.69;32.96;100348.44;4891299;28;98364;-69
2023/07/19 05:09:30;;;;;;;;;;;;;;;16.81;32.93;100348.69;4912353;28;98180;-69
2023/07/19 05:11:57;;;;;;;;;;;;;;;16.92;33.03;100343.81;4942011;28;97981;-69
2023/07/19 05:14:25;;;;;;;;;;;;;;;17.06;33.04;100338.28;4907968;28;98261;-69
2023/07/19 05:16:52;;;;;;;;;;;;;;;17.26;32.88;100342.38;4890490;28;99465;-69
2023/07/19 05:19:18;;;;;;;;;;;;;;;17.48;32.81;100342.25;4911065;28;98121;-69
2023/07/19 05:21:45;;;;;;;;;;;;;;;17.77;32.96;100330.03;4923452;28;99806;-70
2023/07/19 05:24:12;;;;;;;;;;;;;;;18.02;32.48;100328.44;4925199;28;98162;-69
2023/07/19 05:26:39;;;;;;;;;;;;;;;18.26;32.54;100330.69;4908347;28;98145;-70
2023/07/19 05:29:06;;;;;;;;;;;;;;;18.50;32.46;100327.44;4889317;28;98243;-70
2023/07/19 05:31:35;;;;;;;;;;;;;;;18.73;32.21;100331.59;4912228;28;99784;-70
2023/07/19 05:34:02;;;;;;;;;;;;;;;18.86;32.30;100327.88;4922828;28;98086;-70
2023/07/19 05:36:29;;;;;;;;;;;;;;;19.11;32.38;100336.31;4924108;28;98642;-70
2023/07/19 05:38:56;;;;;;;;;;;;;;;19.31;32.26;100329.31;4906905;28;98224;-70
2023/07/19 05:41:22;;;;;;;;;;;;;;;19.50;32.15;100321.50;4891449;28;100737;-70
2023/07/19 05:43:49;;;;;;;;;;;;;;;19.73;32.20;100326.66;4924264;28;98014;-69
2023/07/19 05:46:18;;;;;;;;;;;;;;;19.93;32.07;100319.63;4921877;28;98186;-69
2023/07/19 05:48:45;;;;;;;;;;;;;;;20.18;32.01;100321.34;4909653;28;98061;-70
2023/07/19 05:51:12;;;;;;;;;;;;;;;20.46;32.01;100318.84;4908650;28;98524;-70
2023/07/19 05:53:38;;;;;;;;;;;;;;;20.77;31.85;100312.09;4923637;28;98181;-70
2023/07/19 05:56:05;;;;;;;;;;;;;;;21.09;31.96;100304.94;4892694;28;98180;-70
2023/07/19 05:58:31;;;;;;;;;;;;;;;21.42;31.73;100304.06;4907534;28;98037;-70
2023/07/19 06:00:57;;;;;;;;;;;;;;;21.77;31.70;100301.59;4923500;28;98337;-70
2023/07/19 06:03:24;;;;;;;;;;;;;;;22.15;31.67;100312.16;4912514;28;98534;-70
2023/07/19 06:05:50;;;;;;;;;;;;;;;22.59;31.60;100306.69;4886448;28;98001;-70
2023/07/19 06:08:16;;;;;;;;;;;;;;;23.06;31.58;100311.44;4924046;28;98469;-70
2023/07/19 06:10:42;;;;;;;;;;;;;;;23.58;31.27;100301.25;4904169;28;98279;-70
2023/07/19 06:13:13;;;;;;;;;;;;;;;24.10;31.14;100306.34;4897218;28;101071;-70
2023/07/19 06:15:39;;;;;;;;;;;;;;;24.83;31.07;100303.78;4895579;28;99029;-70
2023/07/19 06:18:06;;;;;;;;;;;;;;;25.43;30.94;100298.50;4909827;28;98077;-70
2023/07/19 06:20:32;;;;;;;;;;;;;;;26.26;30.49;100300.38;4927689;28;100144;-70
2023/07/19 06:22:59;;;;;;;;;;;;;;;26.55;30.38;100302.31;4923857;28;98899;-70
2023/07/19 06:25:26;;;;;;;;;;;;;;;27.18;30.26;100311.56;4927056;28;97847;-70
2023/07/19 06:27:52;;;;;;;;;;;;;;;27.42;30.32;100302.66;4906915;28;98125;-70
2023/07/19 06:30:18;;;;;;;;;;;;;;;27.78;30.31;100302.88;4905569;28;100307;-70
2023/07/19 06:32:45;;;;;;;;;;;;;;;28.59;30.13;100303.59;4905756;28;98343;-70
2023/07/19 06:35:12;;;;;;;;;;;;;;;29.07;29.76;100306.81;4905335;28;98239;-70
2023/07/19 06:37:39;;;;;;;;;;;;;;;29.62;29.40;100300.00;4922065;28;98034;-71
2023/07/19 06:40:06;;;;;;;;;;;;;;;30.17;29.51;100304.97;4890585;28;98354;-71
2023/07/19 06:42:32;;;;;;;;;;;;;;;31.35;29.04;100303.38;4922304;28;100378;-71
2023/07/19 06:44:59;;;;;;;;;;;;;;;31.83;29.07;100294.09;4924388;28;99925;-71
2023/07/19 06:47:26;;;;;;;;;;;;;;;32.91;28.48;100285.81;4885363;28;98268;-68
2023/07/19 06:49:53;;;;;;;;;;;;;;;36.15;26.27;100293.56;4888344;28;98232;-68
2023/07/19 06:52:20;;;;;;;;;;;;;;;35.77;26.65;100297.06;4904324;28;98434;-69
2023/07/19 06:54:46;;;;;;;;;;;;;;;34.20;27.70;100284.97;4918855;28;98225;-69
2023/07/19 06:57:13;;;;;;;;;;;;;;;33.67;28.62;100284.06;4903784;28;98084;-68
2023/07/19 06:59:39;;;;;;;;;;;;;;;33.44;28.85;100282.09;4907176;28;100064;-69
2023/07/19 07:02:06;;;;;;;;;;;;;;;33.22;29.15;100290.09;4910387;28;100941;-68
2023/07/19 07:04:33;;;;;;;;;;;;;;;33.30;29.05;100270.41;4906150;28;98888;-69
2023/07/19 07:06:59;;;;;;;;;;;;;;;33.26;28.93;100276.06;4906354;28;99786;-68
2023/07/19 07:09:27;;;;;;;;;;;;;;;33.32;29.16;100282.72;4900625;28;98130;-70
2023/07/19 07:11:53;;;;;;;;;;;;;;;33.55;29.21;100267.94;4907054;28;98081;-69
2023/07/19 07:14:20;;;;;;;;;;;;;;;34.04;28.64;100268.19;4906565;28;100023;-69
2023/07/19 07:16:46;;;;;;;;;;;;;;;34.36;28.39;100264.66;4908316;28;98381;-69
2023/07/19 07:19:12;;;;;;;;;;;;;;;34.68;28.13;100263.91;4899311;28;98173;-70
2023/07/19 07:21:39;;;;;;;;;;;;;;;34.96;28.30;100266.44;4921275;28;98223;-69
2023/07/19 07:24:06;;;;;;;;;;;;;;;35.29;28.08;100261.56;4890836;28;98123;-70
2023/07/19 07:26:33;;;;;;;;;;;;;;;35.79;27.95;100258.16;4922215;28;98634;-68
2023/07/19 07:28:59;;;;;;;;;;;;;;;36.13;27.87;100265.97;4906467;28;98153;-69
2023/07/19 07:31:25;;;;;;;;;;;;;;;36.52;27.74;100257.59;4922154;28;98815;-69
2023/07/19 07:33:52;;;;;;;;;;;;;;;36.71;27.67;100256.56;4908302;28;97998;-69
2023/07/19 07:36:20;;;;;;;;;;;;;;;36.27;28.24;100253.53;4904498;28;98434;-69
2023/07/19 07:38:48;;;;;;;;;;;;;;;36.56;28.07;100250.63;4921777;28;98385;-69
2023/07/19 07:41:14;;;;;;;;;;;;;;;36.99;27.90;100242.81;4908428;28;98544;-76
2023/07/19 07:43:40;;;;;;;;;;;;;;;36.84;28.27;100251.69;4890581;28;98226;-69
2023/07/19 07:46:08;;;;;;;;;;;;;;;37.55;27.86;100250.44;4907001;28;98154;-77
2023/07/19 07:48:35;;;;;;;;;;;;;;;37.93;27.77;100244.63;4922019;28;98361;-70
2023/07/19 07:51:01;;;;;;;;;;;;;;;38.23;27.23;100245.81;4909402;28;98669;-69
2023/07/19 07:53:28;;;;;;;;;;;;;;;38.39;27.23;100246.84;4912092;28;98288;-69
2023/07/19 07:55:55;;;;;;;;;;;;;;;38.79;27.19;100233.53;4894490;28;99991;-69
2023/07/19 07:58:21;;;;;;;;;;;;;;;39.43;27.17;100234.78;4891649;28;98513;-69
2023/07/19 08:00:49;;;;;;;;;;;;;;;40.00;26.71;100227.28;4904643;28;98283;-69
2023/07/19 08:03:17;;;;;;;;;;;;;;;40.67;26.45;100219.59;4923390;28;100393;-69
2023/07/19 08:05:43;;;;;;;;;;;;;;;41.22;26.43;100232.53;4891298;28;98263;-77
2023/07/19 08:08:10;;;;;;;;;;;;;;;41.82;25.86;100225.69;4903034;28;98301;-76
2023/07/19 08:10:39;;;;;;;;;;;;;;;42.37;26.00;100213.66;4889208;28;100396;-69
2023/07/19 08:13:07;;;;;;;;;;;;;;;42.71;25.50;100219.78;4890316;28;97941;-69
2023/07/19 08:15:35;;;;;;;;;;;;;;;43.16;25.40;100209.00;4925329;28;98724;-76
2023/07/19 08:18:02;;;;;;;;;;;;;;;43.70;25.69;100205.63;4886901;28;98752;-75
2023/07/19 08:20:30;;;;;;;;;;;;;;;44.17;25.31;100195.66;4920279;28;98064;-76
2023/07/19 08:22:57;;;;;;;;;;;;;;;44.63;25.09;100191.78;4929486;28;98249;-76
2023/07/19 08:25:23;;;;;;;;;;;;;;;45.07;25.07;100193.25;4903576;28;98640;-69
2023/07/19 08:27:49;;;;;;;;;;;;;;;45.78;24.90;100210.13;4909124;28;98123;-75
2023/07/19 08:30:16;;;;;;;;;;;;;;;46.43;24.41;100194.75;4894404;28;103023;-70
2023/07/19 08:32:44;;;;;;;;;;;;;;;46.97;24.59;100185.75;4908166;28;98363;-74
2023/07/19 08:35:11;;;;;;;;;;;;;;;46.65;24.64;100191.81;4922263;28;97953;-75
2023/07/19 08:37:38;;;;;;;;;;;;;;;47.58;24.12;100175.19;4905721;28;98116;-69
2023/07/19 08:40:05;;;;;;;;;;;;;;;48.37;23.90;100175.16;4910797;28;99971;-69
2023/07/19 08:42:34;;;;;;;;;;;;;;;47.38;24.75;100179.25;4906181;28;98070;-77
2023/07/19 08:45:00;;;;;;;;;;;;;;;46.41;25.21;100171.72;4913592;28;98211;-74
2023/07/19 08:47:28;;;;;;;;;;;;;;;47.17;24.96;100168.22;4926831;28;97955;-74
2023/07/19 08:49:55;;;;;;;;;;;;;;;47.74;24.59;100174.25;4926991;28;98172;-75
2023/07/19 08:52:23;;;;;;;;;;;;;;;48.01;24.63;100171.66;4884240;28;98147;-75
2023/07/19 08:54:50;;;;;;;;;;;;;;;46.89;25.23;100157.00;4923770;28;103078;-75
2023/07/19 08:57:16;;;;;;;;;;;;;;;48.03;24.69;100158.41;4940297;28;100067;-70
2023/07/19 08:59:42;;;;;;;;;;;;;;;48.79;24.09;100155.69;4926022;28;97869;-74
2023/07/19 09:02:09;;;;;;;;;;;;;;;49.37;23.86;100157.91;4906557;28;98022;-74
2023/07/19 09:04:36;;;;;;;;;;;;;;;50.09;23.73;100149.31;4921862;28;98241;-73
2023/07/19 09:07:07;;;;;;;;;;;;;;;50.37;23.48;100145.91;4925781;28;98435;-70
2023/07/19 09:09:34;;;;;;;;;;;;;;;50.98;23.55;100143.00;4885322;28;98122;-71
2023/07/19 09:12:00;;;;;;;;;;;;;;;51.13;23.19;100136.63;4908060;28;98119;-71
2023/07/19 09:14:37;;;;;;;;;;;;;;;51.36;23.11;100131.13;4923576;28;98639;-74
2023/07/19 09:17:03;;;;;;;;;;;;;;;51.34;23.33;100139.53;4923228;28;98075;-75
2023/07/19 09:19:29;;;;;;;;;;;;;;;50.82;23.69;100137.09;4908747;28;99758;-75
2023/07/19 09:22:04;;;;;;;;;;;;;;;50.80;23.67;100130.38;4909888;28;98404;-72
2023/07/19 09:24:30;;;;;;;;;;;;;;;50.50;23.63;100122.16;4924046;28;98200;-71
2023/07/19 09:26:57;;;;;;;;;;;;;;;49.93;24.38;100113.22;4928097;28;98226;-75
2023/07/19 09:29:27;;;;;;;;;;;;;;;49.18;24.71;100114.28;4925636;28;98416;-72
2023/07/19 09:31:56;;;;;;;;;;;;;;;48.42;25.29;100095.13;4909295;28;99064;-72
2023/07/19 09:34:30;;;;;;;;;;;;;;;46.60;26.29;100097.84;4923574;28;98541;-75
2023/07/19 09:36:57;;;;;;;;;;;;;;;44.28;27.29;100104.13;4942954;28;97937;-74
2023/07/19 09:39:24;;;;;;;;;;;;;;;42.62;28.49;100100.97;4909540;28;98078;-72
2023/07/19 09:41:50;;;;;;;;;;;;;;;41.17;28.82;100106.81;4925498;28;97866;-75
2023/07/19 09:44:17;;;;;;;;;;;;;;;40.21;29.21;100111.88;4889035;28;98559;-75
2023/07/19 09:46:44;;;;;;;;;;;;;;;39.48;29.14;100098.88;4895337;28;99689;-71
2023/07/19 09:49:11;;;;;;;;;;;;;;;40.57;27.96;100112.88;4890979;28;100328;-76
2023/07/19 09:51:44;;;;;;;;;;;;;;;39.40;28.61;100108.91;4910126;28;98354;-71
2023/07/19 09:54:13;;;;;;;;;;;;;;;38.19;29.64;100106.56;4909858;28;98114;-76
2023/07/19 09:56:41;;;;;;;;;;;;;;;37.66;29.13;100109.53;4888739;28;97948;-71
2023/07/19 09:59:13;;;;;;;;;;;;;;;37.25;29.47;100109.44;4894515;28;100639;-71
2023/07/19 10:01:39;;;;;;;;;;;;;;;36.88;29.29;100118.84;4924247;28;98087;-72
2023/07/19 10:04:27;;;;;;;;;;;;;;;37.21;28.96;100111.59;4924961;28;98271;-76
2023/07/19 10:07:08;;;;;;;;;;;;;;;36.51;29.43;100110.91;4905289;28;98310;-76
2023/07/19 10:09:43;;;;;;;;;;;;;;;35.74;29.63;100109.41;4943838;28;99892;-76
2023/07/19 10:12:18;;;;;;;;;;;;;;;35.16;29.91;100104.72;4925798;28;99063;-71
2023/07/19 10:15:00;;;;;;;;;;;;;;;34.62;29.80;100106.16;4940314;28;98137;-76
2023/07/19 10:17:29;;;;;;;;;;;;;;;34.11;30.48;100111.47;4905542;28;101506;-77
2023/07/19 10:20:09;;;;;;;;;;;;;;;33.62;30.67;100107.81;4914893;28;97940;-70
2023/07/19 10:22:55;;;;;;;;;;;;;;;33.14;30.68;100106.44;4890864;28;98083;-71
2023/07/19 10:25:22;;;;;;;;;;;;;;;32.75;30.69;100105.94;4923319;28;98249;-76
2023/07/19 10:27:56;;;;;;;;;;;;;;;32.41;30.49;100099.81;4926456;28;98357;-71
2023/07/19 10:30:42;;;;;;;;;;;;;;;32.06;30.66;100101.94;4909924;28;100574;-77
2023/07/19 10:33:10;;;;;;;;;;;;;;;31.95;30.60;100104.91;4906964;28;98060;-70
2023/07/19 10:35:37;;;;;;;;;;;;;;;32.15;30.14;100107.78;4907079;28;98260;-77
2023/07/19 10:38:03;;;;;;;;;;;;;;;32.18;29.98;100106.13;4905879;28;98199;-69
2023/07/19 10:40:29;;;;;;;;;;;;;;;32.52;29.42;100102.41;4906848;28;99797;-76
2023/07/19 10:42:56;;;;;;;;;;;;;;;32.69;29.73;100104.84;4906047;28;99555;-76
2023/07/19 10:45:27;;;;;;;;;;;;;;;32.92;29.18;100100.44;4893397;28;98009;-75
2023/07/19 10:47:57;;;;;;;;;;;;;;;33.15;29.32;100097.59;4904212;28;98337;-76
2023/07/19 10:50:25;;;;;;;;;;;;;;;34.32;28.09;100090.56;4923929;28;97963;-71
2023/07/19 10:52:53;;;;;;;;;;;;;;;37.53;26.32;100092.75;4907083;28;98003;-76
2023/07/19 10:55:19;;;;;;;;;;;;;;;39.02;25.53;100091.28;4902409;28;98355;-76
2023/07/19 10:57:47;;;;;;;;;;;;;;;39.96;25.08;100088.47;4902741;28;98367;-76
2023/07/19 11:00:14;;;;;;;;;;;;;;;40.33;25.40;100091.09;4902935;28;98141;-78
2023/07/19 11:02:40;;;;;;;;;;;;;;;41.00;25.01;100082.41;4921097;28;98147;-72
2023/07/19 11:05:08;;;;;;;;;;;;;;;40.11;26.15;100087.75;4906362;28;98231;-76
2023/07/19 11:07:36;;;;;;;;;;;;;;;40.31;26.00;100071.03;4928170;28;98696;-72
2023/07/19 11:10:03;;;;;;;;;;;;;;;39.72;26.37;100062.28;4911437;28;98672;-72
2023/07/19 11:12:32;;;;;;;;;;;;;;;39.38;27.00;100072.78;4905801;28;98679;-71
2023/07/19 11:15:00;;;;;;;;;;;;;;;38.89;26.80;100056.91;4922193;28;98506;-76
2023/07/19 11:17:27;;;;;;;;;;;;;;;39.07;26.89;100053.28;4924827;28;99594;-76
2023/07/19 11:19:54;;;;;;;;;;;;;;;38.80;26.92;100054.13;4926207;28;98040;-77
2023/07/19 11:22:25;;;;;;;;;;;;;;;41.05;25.39;100065.53;4906553;28;98031;-76
2023/07/19 11:24:54;;;;;;;;;;;;;;;41.83;25.17;100056.75;4904002;28;98103;-74
2023/07/19 11:27:32;;;;;;;;;;;;;;;42.17;25.24;100052.28;4909813;28;98329;-72
2023/07/19 11:29:58;;;;;;;;;;;;;;;42.49;25.28;100050.38;4908270;28;98740;-72
2023/07/19 11:32:24;;;;;;;;;;;;;;;42.36;25.58;100038.66;4890649;28;98034;-76
2023/07/19 11:34:56;;;;;;;;;;;;;;;42.62;25.28;100033.00;4920677;28;98358;-71
2023/07/19 11:37:24;;;;;;;;;;;;;;;42.07;25.44;100022.59;4919962;28;98200;-76
2023/07/19 11:39:51;;;;;;;;;;;;;;;42.26;25.72;100020.28;4905463;28;98073;-72
2023/07/19 11:42:43;;;;;;;;;;;;;;;42.08;26.09;100021.31;4908721;28;98966;-72
2023/07/19 11:45:18;;;;;;;;;;;;;;;42.41;25.63;100018.91;4940341;28;98222;-73
2023/07/19 11:47:48;;;;;;;;;;;;;;;41.98;26.19;100022.75;4938122;28;98302;-73
2023/07/19 11:50:14;;;;;;;;;;;;;;;41.10;26.89;100005.50;4921918;28;99031;-75
2023/07/19 11:53:01;;;;;;;;;;;;;;;41.29;26.62;100011.72;4897917;28;98942;-72
2023/07/19 11:55:30;;;;;;;;;;;;;;;39.53;27.60;100010.84;4902326;28;98183;-75
2023/07/19 11:58:04;;;;;;;;;;;;;;;39.06;28.09;100005.84;4893103;28;98149;-73
2023/07/19 12:00:31;;;;;;;;;;;;;;;40.52;26.74;100012.69;4908140;28;98046;-72
2023/07/19 12:03:00;;;;;;;;;;;;;;;39.47;27.55;100015.59;4926022;28;97967;-72
2023/07/19 12:05:28;;;;;;;;;;;;;;;38.69;27.91;99994.66;4905653;28;98581;-73
2023/07/19 12:07:55;;;;;;;;;;;;;;;38.00;27.95;99994.03;4894214;28;98351;-73
2023/07/19 12:10:22;;;;;;;;;;;;;;;37.38;28.46;99990.59;4905572;28;98793;-75
2023/07/19 12:12:48;;;;;;;;;;;;;;;36.77;28.79;99999.31;4895075;28;98180;-72
2023/07/19 12:15:14;;;;;;;;;;;;;;;36.28;28.91;99993.50;4891081;28;98204;-74
2023/07/19 12:17:40;;;;;;;;;;;;;;;35.75;29.09;99999.66;4893344;28;97900;-75
2023/07/19 12:20:08;;;;;;;;;;;;;;;35.32;29.17;99989.03;4912136;28;98602;-75
2023/07/19 12:22:35;;;;;;;;;;;;;;;35.01;29.17;99997.97;4907068;28;98984;-72
2023/07/19 12:25:01;;;;;;;;;;;;;;;34.66;29.45;99989.38;4883473;28;98572;-73
2023/07/19 12:27:28;;;;;;;;;;;;;;;35.77;28.42;100002.03;4912164;28;98308;-73
2023/07/19 12:29:54;;;;;;;;;;;;;;;36.76;27.59;99991.34;4906347;28;97977;-73
2023/07/19 12:32:20;;;;;;;;;;;;;;;37.52;27.76;99987.22;4881493;28;98033;-70
2023/07/19 12:34:46;;;;;;;;;;;;;;;38.03;26.95;99978.28;4917242;28;98206;-73
2023/07/19 12:37:13;;;;;;;;;;;;;;;38.69;26.84;99977.78;4917893;28;98447;-71